createdAt,value
2018-03-03T00:02:14.107Z,99851
2018-03-03T00:04:42.370Z,99847
2018-03-03T00:07:10.604Z,99847
2018-03-03T00:09:38.886Z,99846
2018-03-03T00:12:07.225Z,99858
2018-03-03T00:14:36.195Z,99853
2018-03-03T00:17:04.389Z,99859
2018-03-03T00:19:32.733Z,99860
2018-03-03T00:22:00.989Z,99855
2018-03-03T00:24:29.230Z,99843
2018-03-03T00:26:57.422Z,99846
2018-03-03T00:29:25.704Z,99845
2018-03-03T00:31:53.937Z,99841
2018-03-03T00:34:22.945Z,99846
2018-03-03T00:36:51.238Z,99844
2018-03-03T00:39:19.615Z,99849
2018-03-03T00:41:47.898Z,99838
2018-03-03T00:44:16.086Z,99830
2018-03-03T00:46:44.254Z,99847
2018-03-03T00:49:12.503Z,99837
2018-03-03T00:51:40.747Z,99846
2018-03-03T00:54:09.735Z,99845
2018-03-03T00:56:38.786Z,99844
2018-03-03T00:59:07.070Z,99838
2018-03-03T01:01:35.256Z,99851
2018-03-03T01:04:03.566Z,99844
2018-03-03T01:06:31.770Z,99861
2018-03-03T01:09:00.054Z,99851
2018-03-03T01:11:28.261Z,99862
2018-03-03T01:13:56.454Z,99863
2018-03-03T01:16:24.780Z,99864
2018-03-03T01:18:53.110Z,99864
2018-03-03T01:21:22.395Z,99865
2018-03-03T01:23:50.603Z,99858
2018-03-03T01:26:18.827Z,99859
2018-03-03T01:28:47.043Z,99853
2018-03-03T01:31:15.274Z,99851
2018-03-03T01:33:43.522Z,99864
2018-03-03T01:36:11.699Z,99854
2018-03-03T01:38:39.974Z,99857
2018-03-03T01:41:08.251Z,99854
2018-03-03T01:43:36.703Z,99847
2018-03-03T01:46:05.131Z,99848
2018-03-03T01:48:33.746Z,99853
2018-03-03T01:51:01.932Z,99858
2018-03-03T01:53:30.191Z,99854
2018-03-03T01:55:58.501Z,99856
2018-03-03T01:58:26.864Z,99861
2018-03-03T02:00:55.110Z,99857
2018-03-03T02:03:23.330Z,99834
2018-03-03T02:05:51.554Z,99845
2018-03-03T02:08:19.763Z,99833
2018-03-03T02:10:48.075Z,99829
2018-03-03T02:13:16.363Z,99833
2018-03-03T02:15:44.637Z,99837
2018-03-03T02:18:12.887Z,99833
2018-03-03T02:20:41.109Z,99834
2018-03-03T02:23:09.411Z,99837
2018-03-03T02:25:37.623Z,99837
2018-03-03T02:28:05.870Z,99827
2018-03-03T02:30:34.102Z,99834
2018-03-03T02:33:02.451Z,99831
2018-03-03T02:35:30.651Z,99831
2018-03-03T02:37:59.024Z,99825
2018-03-03T02:40:27.649Z,99833
2018-03-03T02:42:55.941Z,99835
2018-03-03T02:45:24.145Z,99831
2018-03-03T02:47:52.431Z,99831
2018-03-03T02:50:20.806Z,99829
2018-03-03T02:52:49.029Z,99827
2018-03-03T02:55:17.242Z,99826
2018-03-03T02:57:45.491Z,99810
2018-03-03T03:00:13.813Z,99823
2018-03-03T03:02:42.788Z,99807
2018-03-03T03:05:10.986Z,99810
2018-03-03T03:07:39.316Z,99820
2018-03-03T03:10:07.572Z,99809
2018-03-03T03:12:35.858Z,99811
2018-03-03T03:15:04.069Z,99810
2018-03-03T03:17:32.264Z,99800
2018-03-03T03:20:00.459Z,99802
2018-03-03T03:22:28.659Z,99802
2018-03-03T03:24:56.875Z,99805
2018-03-03T03:27:25.058Z,99805
2018-03-03T03:29:54.007Z,99796
2018-03-03T03:32:22.215Z,99791
2018-03-03T03:34:50.401Z,99789
2018-03-03T03:37:20.190Z,99793
2018-03-03T03:39:49.516Z,99794
2018-03-03T03:42:18.682Z,99806
2018-03-03T03:44:46.942Z,99800
2018-03-03T03:47:15.171Z,99805
2018-03-03T03:49:44.274Z,99806
2018-03-03T03:52:12.571Z,99806
2018-03-03T03:54:40.946Z,99812
2018-03-03T03:57:09.144Z,99794
2018-03-03T03:59:37.409Z,99800
2018-03-03T04:02:05.607Z,99804
2018-03-03T04:04:33.844Z,99803
2018-03-03T04:07:02.426Z,99818
2018-03-03T04:09:30.758Z,99799
2018-03-03T04:11:58.993Z,99806
2018-03-03T04:14:27.274Z,99799
2018-03-03T04:16:55.612Z,99799
2018-03-03T04:19:24.183Z,99795
2018-03-03T04:21:52.409Z,99796
2018-03-03T04:24:21.367Z,99788
2018-03-03T04:26:49.593Z,99794
2018-03-03T04:29:17.821Z,99785
2018-03-03T04:31:46.075Z,99784
2018-03-03T04:34:14.328Z,99786
2018-03-03T04:36:43.351Z,99796
2018-03-03T04:39:11.771Z,99788
2018-03-03T04:41:40.100Z,99790
2018-03-03T04:44:08.314Z,99783
2018-03-03T04:46:37.500Z,99782
2018-03-03T04:49:06.507Z,99783
2018-03-03T04:51:34.740Z,99778
2018-03-03T04:54:02.992Z,99781
2018-03-03T04:56:31.286Z,99779
2018-03-03T05:02:15.867Z,99768
2018-03-03T05:08:07.054Z,99775
2018-03-03T05:10:35.296Z,99772
2018-03-03T05:13:08.036Z,99769
2018-03-03T05:15:42.726Z,99770
2018-03-03T05:18:16.442Z,99761
2018-03-03T05:23:59.594Z,99766
2018-03-03T05:29:40.434Z,99775
2018-03-03T05:35:19.323Z,99774
2018-03-03T05:41:01.159Z,99772
2018-03-03T05:43:42.257Z,99771
2018-03-03T05:46:14.363Z,99767
2018-03-03T05:48:48.523Z,99776
2018-03-03T05:51:21.946Z,99780
2018-03-03T05:57:14.578Z,99788
2018-03-03T06:02:51.147Z,99780
2018-03-03T06:05:25.952Z,99779
2018-03-03T06:07:59.826Z,99782
2018-03-03T06:10:38.050Z,99780
2018-03-03T06:13:06.278Z,99782
2018-03-03T06:15:35.259Z,99783
2018-03-03T06:18:04.226Z,99782
2018-03-03T06:20:32.601Z,99785
2018-03-03T06:23:00.798Z,99779
2018-03-03T06:25:29.769Z,99780
2018-03-03T06:27:58.070Z,99776
2018-03-03T06:30:26.276Z,99776
2018-03-03T06:32:54.515Z,99783
2018-03-03T06:35:23.501Z,99780
2018-03-03T06:37:52.536Z,99789
2018-03-03T06:40:20.759Z,99787
2018-03-03T06:42:49.013Z,99794
2018-03-03T06:45:17.285Z,99784
2018-03-03T06:47:45.528Z,99796
2018-03-03T06:50:13.809Z,99794
2018-03-03T06:52:42.044Z,99793
2018-03-03T06:55:10.261Z,99790
2018-03-03T06:57:38.468Z,99778
2018-03-03T07:00:06.685Z,99784
2018-03-03T07:02:35.659Z,99783
2018-03-03T07:05:04.639Z,99785
2018-03-03T07:07:32.923Z,99786
2018-03-03T07:10:01.968Z,99786
2018-03-03T07:12:30.161Z,99773
2018-03-03T07:15:00.966Z,99782
2018-03-03T07:17:29.200Z,99780
2018-03-03T07:19:58.196Z,99788
2018-03-03T07:22:27.194Z,99793
2018-03-03T07:24:55.366Z,99782
2018-03-03T07:27:24.540Z,99783
2018-03-03T07:29:52.736Z,99773
2018-03-03T07:32:20.937Z,99786
2018-03-03T07:34:49.398Z,99775
2018-03-03T07:37:19.342Z,99783
2018-03-03T07:39:47.525Z,99774
2018-03-03T07:42:15.726Z,99745
2018-03-03T07:44:43.974Z,99780
2018-03-03T07:47:12.233Z,99777
2018-03-03T07:49:40.444Z,99775
2018-03-03T07:52:08.672Z,99778
2018-03-03T07:54:36.914Z,99773
2018-03-03T07:57:12.881Z,99780
2018-03-03T07:59:41.154Z,99774
2018-03-03T08:02:10.200Z,99775
2018-03-03T08:04:38.508Z,99775
2018-03-03T08:07:06.911Z,99775
2018-03-03T08:09:35.193Z,99779
2018-03-03T08:12:04.162Z,99766
2018-03-03T08:14:33.241Z,99771
2018-03-03T08:17:01.462Z,99760
2018-03-03T08:19:29.711Z,99773
2018-03-03T08:21:58.701Z,99773
2018-03-03T08:24:26.907Z,99768
2018-03-03T08:26:55.098Z,99769
2018-03-03T08:29:23.294Z,99760
2018-03-03T08:31:51.608Z,99754
2018-03-03T08:34:19.882Z,99765
2018-03-03T08:36:48.057Z,99770
2018-03-03T08:39:16.302Z,99769
2018-03-03T08:41:44.509Z,99777
2018-03-03T08:44:12.731Z,99777
2018-03-03T08:46:41.054Z,99758
2018-03-03T08:49:09.294Z,99773
2018-03-03T08:51:37.552Z,99770
2018-03-03T08:54:05.751Z,99768
2018-03-03T08:56:33.957Z,99774
2018-03-03T08:59:02.227Z,99785
2018-03-03T09:01:31.395Z,99775
2018-03-03T09:03:59.605Z,99780
2018-03-03T09:06:27.867Z,99779
2018-03-03T09:08:56.121Z,99788
2018-03-03T09:11:24.437Z,99780
2018-03-03T09:13:52.769Z,99778
2018-03-03T09:16:21.131Z,99780
2018-03-03T09:18:49.369Z,99775
2018-03-03T09:21:17.931Z,99771
2018-03-03T09:23:46.942Z,99777
2018-03-03T09:26:15.390Z,99775
2018-03-03T09:28:44.434Z,99775
2018-03-03T09:31:12.773Z,99784
2018-03-03T09:33:41.944Z,99774
2018-03-03T09:36:10.214Z,99776
2018-03-03T09:38:38.552Z,99771
2018-03-03T09:41:06.789Z,99772
2018-03-03T09:43:35.919Z,99767
2018-03-03T09:46:04.135Z,99778
2018-03-03T09:48:32.383Z,99767
2018-03-03T09:51:00.620Z,99771
2018-03-03T09:53:28.925Z,99768
2018-03-03T09:55:57.280Z,99769
2018-03-03T09:58:25.695Z,99771
2018-03-03T10:00:53.939Z,99768
2018-03-03T10:03:22.300Z,99769
2018-03-03T10:05:50.547Z,99771
2018-03-03T10:08:18.861Z,99766
2018-03-03T10:10:47.142Z,99771
2018-03-03T10:13:15.329Z,99768
2018-03-03T10:15:44.322Z,99755
2018-03-03T10:18:12.527Z,99765
2018-03-03T10:20:40.727Z,99756
2018-03-03T10:23:08.955Z,99752
2018-03-03T10:25:37.944Z,99752
2018-03-03T10:28:06.226Z,99756
2018-03-03T10:30:34.512Z,99750
2018-03-03T10:33:03.596Z,99759
2018-03-03T10:35:31.902Z,99749
2018-03-03T10:38:00.232Z,99751
2018-03-03T10:40:28.473Z,99746
2018-03-03T10:42:57.625Z,99741
2018-03-03T10:45:25.934Z,99747
2018-03-03T10:47:54.946Z,99748
2018-03-03T10:50:23.590Z,99749
2018-03-03T10:52:51.775Z,99742
2018-03-03T10:55:19.999Z,99735
2018-03-03T10:57:48.259Z,99746
2018-03-03T11:00:32.014Z,99737
2018-03-03T11:03:00.297Z,99740
2018-03-03T11:05:28.537Z,99741
2018-03-03T11:07:57.543Z,99734
2018-03-03T11:10:25.862Z,99744
2018-03-03T11:12:54.011Z,99735
2018-03-03T11:15:22.509Z,99749
2018-03-03T11:17:51.046Z,99737
2018-03-03T11:20:19.377Z,99740
2018-03-03T11:22:47.585Z,99742
2018-03-03T11:25:16.524Z,99730
2018-03-03T11:27:44.785Z,99742
2018-03-03T11:30:13.059Z,99732
2018-03-03T11:32:41.411Z,99733
2018-03-03T11:35:09.846Z,99727
2018-03-03T11:37:38.124Z,99729
2018-03-03T11:40:06.302Z,99737
2018-03-03T11:42:34.571Z,99626
2018-03-03T11:45:02.805Z,99727
2018-03-03T11:47:31.011Z,99734
2018-03-03T11:49:59.420Z,99725
2018-03-03T11:52:27.700Z,99725
2018-03-03T11:54:56.802Z,99729
2018-03-03T11:57:25.798Z,99730
2018-03-03T11:59:54.100Z,99715
2018-03-03T12:02:22.327Z,99717
2018-03-03T12:04:50.658Z,99731
2018-03-03T12:07:18.929Z,99714
2018-03-03T12:09:47.173Z,99716
2018-03-03T12:12:17.062Z,99715
2018-03-03T12:14:45.550Z,99711
2018-03-03T12:17:14.568Z,99710
2018-03-03T12:19:42.817Z,99716
2018-03-03T12:22:11.034Z,99719
2018-03-03T12:24:39.303Z,99714
2018-03-03T12:27:07.561Z,99714
2018-03-03T12:29:35.795Z,99725
2018-03-03T12:32:04.791Z,99716
2018-03-03T12:34:33.104Z,99715
2018-03-03T12:37:02.555Z,99714
2018-03-03T12:39:30.809Z,99710
2018-03-03T12:41:59.063Z,99704
2018-03-03T12:44:27.445Z,99697
2018-03-03T12:46:55.621Z,99704
2018-03-03T12:49:24.535Z,99696
2018-03-03T12:51:52.745Z,99693
2018-03-03T12:54:21.073Z,99695
2018-03-03T12:56:49.258Z,99697
2018-03-03T12:59:18.208Z,99682
2018-03-03T13:01:46.529Z,99679
2018-03-03T13:04:14.722Z,99689
2018-03-03T13:06:43.388Z,99686
2018-03-03T13:09:11.585Z,99680
2018-03-03T13:11:39.882Z,99679
2018-03-03T13:14:08.848Z,99672
2018-03-03T13:16:37.930Z,99664
2018-03-03T13:19:06.182Z,99669
2018-03-03T13:21:34.388Z,99666
2018-03-03T13:24:02.616Z,99665
2018-03-03T13:26:30.850Z,99661
2018-03-03T13:28:59.070Z,99655
2018-03-03T13:31:27.440Z,99668
2018-03-03T13:33:55.657Z,99663
2018-03-03T13:36:25.261Z,99664
2018-03-03T13:38:54.126Z,99659
2018-03-03T13:41:22.382Z,99662
2018-03-03T13:43:50.678Z,99654
2018-03-03T13:46:18.966Z,99644
2018-03-03T13:48:47.899Z,99647
2018-03-03T13:51:17.755Z,99647
2018-03-03T13:53:45.979Z,99647
2018-03-03T13:56:14.150Z,99645
2018-03-03T13:58:42.410Z,99640
2018-03-03T14:01:10.583Z,99647
2018-03-03T14:03:38.776Z,99646
2018-03-03T14:06:07.839Z,99640
2018-03-03T14:08:36.161Z,99647
2018-03-03T14:11:04.432Z,99654
2018-03-03T14:13:33.461Z,99649
2018-03-03T14:16:02.462Z,99647
2018-03-03T14:18:30.701Z,99650
2018-03-03T14:20:58.952Z,99637
2018-03-03T14:23:27.229Z,99633
2018-03-03T14:25:56.236Z,99634
2018-03-03T14:28:25.817Z,99633
2018-03-03T14:30:54.072Z,99644
2018-03-03T14:33:22.362Z,99632
2018-03-03T14:35:50.629Z,99636
2018-03-03T14:38:18.901Z,99634
2018-03-03T14:40:47.328Z,99641
2018-03-03T14:43:15.532Z,99628
2018-03-03T14:45:43.766Z,99640
2018-03-03T14:48:12.746Z,99643
2018-03-03T14:50:42.423Z,99636
2018-03-03T14:53:11.091Z,99638
2018-03-03T14:55:39.330Z,99644
2018-03-03T14:58:08.284Z,99647
2018-03-03T15:00:36.545Z,99634
2018-03-03T15:03:05.027Z,99643
2018-03-03T15:05:33.247Z,99643
2018-03-03T15:08:03.072Z,99636
2018-03-03T15:10:31.283Z,99637
2018-03-03T15:12:59.493Z,99637
2018-03-03T15:15:27.687Z,99637
2018-03-03T15:17:55.964Z,99634
2018-03-03T15:20:24.920Z,99638
2018-03-03T15:22:53.181Z,99634
2018-03-03T15:25:21.409Z,99636
2018-03-03T15:27:49.662Z,99635
2018-03-03T15:30:17.811Z,99625
2018-03-03T15:32:46.056Z,99630
2018-03-03T15:35:14.317Z,99629
2018-03-03T15:37:42.534Z,99629
2018-03-03T15:40:11.011Z,99628
2018-03-03T15:42:39.178Z,99631
2018-03-03T15:45:07.419Z,99628
2018-03-03T15:47:35.682Z,99643
2018-03-03T15:50:03.861Z,99636
2018-03-03T15:52:32.106Z,99629
2018-03-03T15:55:01.103Z,99624
2018-03-03T15:57:30.203Z,99625
2018-03-03T15:59:59.307Z,99616
2018-03-03T16:02:27.547Z,99629
2018-03-03T16:04:55.779Z,99618
2018-03-03T16:07:24.055Z,99619
2018-03-03T16:09:52.368Z,99621
2018-03-03T16:12:20.691Z,99620
2018-03-03T16:14:48.842Z,99621
2018-03-03T16:17:17.877Z,99628
2018-03-03T16:19:46.090Z,99617
2018-03-03T16:22:14.282Z,99624
2018-03-03T16:24:43.553Z,99616
2018-03-03T16:27:11.773Z,99624
2018-03-03T16:29:40.007Z,99625
2018-03-03T16:32:08.177Z,99634
2018-03-03T16:34:36.383Z,99629
2018-03-03T16:37:04.567Z,99636
2018-03-03T16:39:32.779Z,99643
2018-03-03T16:42:00.961Z,99642
2018-03-03T16:44:29.158Z,99633
2018-03-03T16:46:57.356Z,99635
2018-03-03T16:49:26.329Z,99639
2018-03-03T16:51:54.762Z,99625
2018-03-03T16:54:23.069Z,99639
2018-03-03T16:56:51.246Z,99646
2018-03-03T16:59:19.455Z,99635
2018-03-03T17:01:47.671Z,99635
2018-03-03T17:04:15.934Z,99636
2018-03-03T17:06:44.110Z,99634
2018-03-03T17:09:12.331Z,99628
2018-03-03T17:11:40.564Z,99642
2018-03-03T17:14:08.794Z,99628
2018-03-03T17:16:37.015Z,99633
2018-03-03T17:19:05.231Z,99636
2018-03-03T17:21:34.383Z,99635
2018-03-03T17:24:03.153Z,99626
2018-03-03T17:26:31.423Z,99625
2018-03-03T17:28:59.624Z,99641
2018-03-03T17:31:28.727Z,99639
2018-03-03T17:33:56.917Z,99637
2018-03-03T17:36:25.216Z,99637
2018-03-03T17:38:53.520Z,99640
2018-03-03T17:41:21.812Z,99645
2018-03-03T17:43:50.240Z,99645
2018-03-03T17:46:19.247Z,99649
2018-03-03T17:48:47.540Z,99643
2018-03-03T17:51:16.592Z,99646
2018-03-03T17:53:44.863Z,99654
2018-03-03T17:56:13.683Z,99646
2018-03-03T17:58:42.121Z,99660
2018-03-03T18:01:10.369Z,99662
2018-03-03T18:03:38.605Z,99669
2018-03-03T18:06:07.127Z,99658
2018-03-03T18:08:35.411Z,99673
2018-03-03T18:11:07.375Z,99678
2018-03-03T18:13:35.591Z,99674
2018-03-03T18:16:04.655Z,99674
2018-03-03T18:18:32.902Z,99676
2018-03-03T18:21:01.261Z,99682
2018-03-03T18:23:29.470Z,99680
2018-03-03T18:25:57.690Z,99682
2018-03-03T18:28:25.965Z,99678
2018-03-03T18:30:54.188Z,99683
2018-03-03T18:33:22.503Z,99682
2018-03-03T18:35:51.965Z,99683
2018-03-03T18:38:20.167Z,99682
2018-03-03T18:40:48.378Z,99682
2018-03-03T18:43:16.570Z,99687
2018-03-03T18:45:44.828Z,99689
2018-03-03T18:48:13.122Z,99687
2018-03-03T18:50:41.910Z,99695
2018-03-03T18:53:10.120Z,99694
2018-03-03T18:55:38.352Z,99700
2018-03-03T18:58:06.579Z,99707
2018-03-03T19:00:35.672Z,99710
2018-03-03T19:03:04.728Z,99711
2018-03-03T19:05:32.915Z,99706
2018-03-03T19:08:01.215Z,99706
2018-03-03T19:10:30.317Z,99712
2018-03-03T19:12:59.321Z,99706
2018-03-03T19:15:29.034Z,99715
2018-03-03T19:17:57.356Z,99720
2018-03-03T19:20:25.629Z,99723
2018-03-03T19:22:54.036Z,99720
2018-03-03T19:25:23.068Z,99724
2018-03-03T19:27:51.298Z,99728
2018-03-03T19:30:19.719Z,99715
2018-03-03T19:32:48.032Z,99719
2018-03-03T19:35:16.339Z,99725
2018-03-03T19:37:45.309Z,99723
2018-03-03T19:40:13.696Z,99735
2018-03-03T19:42:41.924Z,99738
2018-03-03T19:45:10.211Z,99750
2018-03-03T19:47:38.481Z,99726
2018-03-03T19:50:07.011Z,99749
2018-03-03T19:52:35.323Z,99756
2018-03-03T19:55:03.499Z,99745
2018-03-03T19:57:31.782Z,99749
2018-03-03T20:00:00.092Z,99741
2018-03-03T20:02:28.338Z,99746
2018-03-03T20:04:56.559Z,99737
2018-03-03T20:07:25.557Z,99735
2018-03-03T20:09:55.525Z,99745
2018-03-03T20:12:23.717Z,99743
2018-03-03T20:14:51.959Z,99752
2018-03-03T20:17:20.254Z,99747
2018-03-03T20:19:48.508Z,99738
2018-03-03T20:22:16.698Z,99738
2018-03-03T20:24:45.027Z,99737
2018-03-03T20:27:14.075Z,99739
2018-03-03T20:29:42.289Z,99744
2018-03-03T20:32:10.653Z,99737
2018-03-03T20:34:38.949Z,99735
2018-03-03T20:37:08.021Z,99744
2018-03-03T20:39:36.260Z,99739
2018-03-03T20:42:04.571Z,99739
2018-03-03T20:44:32.823Z,99729
2018-03-03T20:47:01.136Z,99727
2018-03-03T20:49:29.314Z,99737
2018-03-03T20:51:58.318Z,99728
2018-03-03T20:54:26.622Z,99719
2018-03-03T20:56:54.877Z,99719
2018-03-03T20:59:23.350Z,99728
2018-03-03T21:01:51.707Z,99726
2018-03-03T21:04:20.190Z,99722
2018-03-03T21:06:48.444Z,99726
2018-03-03T21:09:16.690Z,99717
2018-03-03T21:11:47.230Z,99718
2018-03-03T21:14:16.267Z,99719
2018-03-03T21:16:45.962Z,99723
2018-03-03T21:19:14.933Z,99725
2018-03-03T21:21:43.172Z,99725
2018-03-03T21:24:11.392Z,99732
2018-03-03T21:26:39.598Z,99735
2018-03-03T21:29:08.053Z,99744
2018-03-03T21:31:37.700Z,99736
2018-03-03T21:34:05.974Z,99731
2018-03-03T21:36:34.199Z,99724
2018-03-03T21:39:02.926Z,99726
2018-03-03T21:41:31.201Z,99725
2018-03-03T21:43:59.474Z,99732
2018-03-03T21:46:28.629Z,99727
2018-03-03T21:48:57.570Z,99726
2018-03-03T21:51:25.824Z,99724
2018-03-03T21:53:54.182Z,99724
2018-03-03T21:56:22.576Z,99717
2018-03-03T21:58:50.772Z,99722
2018-03-03T22:01:18.991Z,99722
2018-03-03T22:03:48.766Z,99719
2018-03-03T22:06:17.072Z,99727
2018-03-03T22:08:45.324Z,99718
2018-03-03T22:11:13.566Z,99726
2018-03-03T22:13:42.598Z,99726
2018-03-03T22:16:10.812Z,99726
2018-03-03T22:18:39.100Z,99726
2018-03-03T22:21:07.468Z,99728
2018-03-03T22:23:35.661Z,99732
2018-03-03T22:26:05.564Z,99723
2018-03-03T22:28:34.604Z,99730
2018-03-03T22:31:02.799Z,99716
2018-03-03T22:33:31.305Z,99726
2018-03-03T22:35:59.515Z,99715
2018-03-03T22:38:27.728Z,99728
2018-03-03T22:40:55.947Z,99708
2018-03-03T22:43:24.272Z,99719
2018-03-03T22:45:52.484Z,99708
2018-03-03T22:48:20.759Z,99709
2018-03-03T22:50:49.005Z,99706
2018-03-03T22:53:17.836Z,99715
2018-03-03T22:55:46.863Z,99703
2018-03-03T22:58:15.073Z,99707
2018-03-03T23:00:43.285Z,99690
2018-03-03T23:03:11.506Z,99700
2018-03-03T23:05:39.710Z,99690
2018-03-03T23:08:08.776Z,99696
2018-03-03T23:10:36.987Z,99699
2018-03-03T23:13:05.204Z,99693
2018-03-03T23:15:33.445Z,99692
2018-03-03T23:18:01.678Z,99703
2018-03-03T23:20:29.885Z,99709
2018-03-03T23:22:58.918Z,99701
2018-03-03T23:25:27.144Z,99695
2018-03-03T23:27:56.098Z,99694
2018-03-03T23:30:24.325Z,99712
2018-03-03T23:32:52.536Z,99705
2018-03-03T23:35:20.856Z,99707
2018-03-03T23:37:49.985Z,99713
2018-03-03T23:40:18.343Z,99705
2018-03-03T23:42:46.676Z,99709
2018-03-03T23:45:14.931Z,99708
2018-03-03T23:47:43.183Z,99711
2018-03-03T23:50:11.501Z,99710
2018-03-03T23:52:39.839Z,99713
2018-03-03T23:55:08.026Z,99718
2018-03-03T23:57:36.258Z,99718
